This is the latest recevied weather packets stored in our database for station/object KB3AWQ. If no packets are shown the sender has not sent any weather packets the latest 10 day(s).
| Time | Temp. | Humidity | Pressure | Rain* | Wind** | Luminosity | Snow |
|---|---|---|---|---|---|---|---|
| 1777830566 | 15.56° C | 40% | 1012.9 hPa | 0 mm | - | 910 W/m² | - |
| 1777830266 | 15° C | 41% | 1012.9 hPa | 0 mm | - | 975 W/m² | - |
| 1777829967 | 15° C | 38% | 1012.9 hPa | 0 mm | - | 764 W/m² | - |
| 1777829668 | 14.44° C | 41% | 1013 hPa | 0 mm | - | 1151 W/m² | - |
| 1777829366 | 14.44° C | 42% | 1013.1 hPa | 0 mm | - | 1160 W/m² | - |
| 1777829068 | 13.89° C | 42% | 1013.2 hPa | 0 mm | - | 306 W/m² | - |
| 1777828766 | 13.89° C | 45% | 1013.3 hPa | 0 mm | - | 514 W/m² | - |
| 1777828467 | 13.89° C | 43% | 1013.4 hPa | 0 mm | - | 331 W/m² | - |
| 1777828166 | 14.44° C | 41% | 1013.3 hPa | 0 mm | - | 296 W/m² | - |
| 1777827866 | 15° C | 39% | 1013.7 hPa | 0 mm | - | 313 W/m² | - |
| 1777827566 | 14.44° C | 42% | 1013.7 hPa | 0 mm | - | 279 W/m² | - |
| 1777827267 | 14.44° C | 40% | 1013.8 hPa | 0 mm | - | 854 W/m² | - |
| 1777826966 | 13.89° C | 41% | 1013.8 hPa | 0 mm | - | 908 W/m² | - |
| 1777826666 | 13.89° C | 42% | 1013.9 hPa | 0 mm | - | 891 W/m² | - |
| 1777826367 | 13.89° C | 40% | 1014 hPa | 0 mm | - | 906 W/m² | - |
| 1777826067 | 13.33° C | 44% | 1014.1 hPa | 0 mm | - | 1059 W/m² | - |
| 1777825766 | 13.89° C | 42% | 1014.1 hPa | 0 mm | - | 623 W/m² | - |
| 1777825467 | 13.33° C | 45% | 1014.2 hPa | 0 mm | - | 1069 W/m² | - |
| 1777825167 | 13.33° C | 42% | 1014.1 hPa | 0 mm | - | 1047 W/m² | - |
| 1777824867 | 13.33° C | 42% | 1014.3 hPa | 0 mm | - | 961 W/m² | - |
| 1777824567 | 12.78° C | 45% | 1014.4 hPa | 0 mm | - | 1004 W/m² | - |
| 1777824267 | 12.78° C | 44% | 1014.4 hPa | 0 mm | - | 1071 W/m² | - |
| 1777823966 | 12.78° C | 45% | 1014.3 hPa | 0 mm | - | 565 W/m² | - |
| 1777823666 | 12.78° C | 45% | 1014.4 hPa | 0 mm | - | 318 W/m² | - |
| 1777823366 | 12.22° C | 44% | 1014.5 hPa | 0 mm | - | 734 W/m² | - |
* Rain latest hour (hover to see other rain measurements)
** Current wind speed in m/s (hover to see current wind gust speed)